Time;durP1;ratioP1;P1;durP2;ratioP2;P2;SDS_P1;SDS_P2;PMS_P1;PMS_P2;Temp;Humidity;BMP_temperature;BMP_pressure;BME280_temperature;BME280_humidity;BME280_pressure;Samples;Min_cycle;Max_cycle;Signal;HPM_P1;HPM_P2
2022/07/23 00:00:11;;;;;;;8.97;6.80;;;;;;;15.88;90.00;100657.03;4718426;28;10000540;-71
2022/07/23 00:02:38;;;;;;;7.60;6.83;;;;;;;15.76;90.46;100652.22;5068726;28;20253;-71
2022/07/23 00:05:05;;;;;;;7.60;6.63;;;;;;;15.89;90.80;100642.09;5068893;28;20289;-71
2022/07/23 00:07:31;;;;;;;7.23;6.40;;;;;;;16.00;90.45;100639.91;5070421;28;20616;-71
2022/07/23 00:09:58;;;;;;;6.47;5.90;;;;;;;16.13;90.10;100647.34;5070694;28;20276;-71
2022/07/23 00:12:24;;;;;;;7.13;6.47;;;;;;;16.16;90.06;100665.66;5071246;28;20247;-71
2022/07/23 00:14:52;;;;;;;8.73;6.80;;;;;;;16.08;90.17;100672.06;5070929;28;20745;-71
2022/07/23 00:17:19;;;;;;;7.20;6.50;;;;;;;16.15;90.22;100659.50;5071205;28;20205;-72
2022/07/23 00:19:45;;;;;;;6.70;6.20;;;;;;;16.15;89.99;100669.19;5071055;28;20278;-71
2022/07/23 00:22:11;;;;;;;7.23;6.63;;;;;;;16.14;90.09;100662.22;5071378;28;20270;-71
2022/07/23 00:24:38;;;;;;;6.83;6.13;;;;;;;16.22;89.64;100670.69;5071312;28;20210;-72
2022/07/23 00:27:04;;;;;;;7.43;6.73;;;;;;;16.18;89.95;100677.00;5071123;28;20253;-72
2022/07/23 00:29:31;;;;;;;6.87;6.17;;;;;;;16.24;90.03;100672.34;5071028;28;20288;-71
2022/07/23 00:31:59;;;;;;;7.27;6.67;;;;;;;16.22;89.66;100689.97;5071047;28;20215;-71
2022/07/23 00:34:25;;;;;;;7.57;6.63;;;;;;;16.19;89.63;100699.75;5074504;28;20255;-71
2022/07/23 00:36:53;;;;;;;6.80;6.17;;;;;;;16.22;90.00;100692.63;5074751;28;20215;-71
2022/07/23 00:39:20;;;;;;;6.33;5.73;;;;;;;16.30;89.92;100683.56;5074933;28;20248;-71
2022/07/23 00:41:47;;;;;;;8.30;5.70;;;;;;;16.36;89.67;100689.44;5074806;28;20261;-71
2022/07/23 00:44:18;;;;;;;6.27;5.67;;;;;;;16.38;89.13;100699.94;5074715;28;20198;-71
2022/07/23 00:46:50;;;;;;;7.17;6.47;;;;;;;16.24;89.33;100721.53;5074255;28;20211;-71
2022/07/23 00:49:17;;;;;;;7.57;6.97;;;;;;;16.01;89.95;100703.94;5074793;28;20230;-72
2022/07/23 00:51:44;;;;;;;8.13;6.70;;;;;;;16.05;90.16;100689.75;5074774;28;20222;-71
2022/07/23 00:54:11;;;;;;;7.23;6.63;;;;;;;16.14;90.38;100676.25;5074481;28;20255;-71
2022/07/23 00:56:37;;;;;;;6.87;6.27;;;;;;;16.22;90.13;100689.13;5074292;28;20252;-72
2022/07/23 00:59:04;;;;;;;6.80;6.20;;;;;;;16.31;89.46;100704.56;5074469;28;20296;-71
2022/07/23 01:01:30;;;;;;;10.77;7.60;;;;;;;16.26;88.93;100719.69;5074018;28;20205;-71
2022/07/23 01:03:57;;;;;;;6.43;5.80;;;;;;;16.24;88.73;100732.91;5074506;28;20260;-71
2022/07/23 01:06:25;;;;;;;6.40;5.80;;;;;;;16.30;89.14;100723.09;5074152;28;20204;-71
2022/07/23 01:08:52;;;;;;;6.53;5.93;;;;;;;16.33;89.25;100725.59;5074289;28;20280;-72
2022/07/23 01:11:19;;;;;;;5.60;5.17;;;;;;;16.39;88.94;100728.88;5074480;28;20207;-71
2022/07/23 01:13:45;;;;;;;6.13;5.53;;;;;;;16.46;88.74;100726.84;5074018;28;20274;-71
2022/07/23 01:16:12;;;;;;;5.90;5.47;;;;;;;16.48;88.44;100722.38;5073650;28;20209;-72
2022/07/23 01:18:38;;;;;;;5.97;5.37;;;;;;;16.51;88.04;100730.16;5074142;28;20228;-71
2022/07/23 01:21:05;;;;;;;7.00;5.33;;;;;;;16.53;87.86;100732.72;5073823;28;20210;-71
2022/07/23 01:23:33;;;;;;;5.40;5.10;;;;;;;16.59;87.67;100740.38;5074099;28;20347;-71
2022/07/23 01:25:59;;;;;;;5.13;4.73;;;;;;;16.51;87.54;100747.72;5073792;28;20209;-71
2022/07/23 01:28:26;;;;;;;6.03;5.47;;;;;;;16.47;86.63;100768.06;5073732;28;20235;-71
2022/07/23 01:30:52;;;;;;;5.40;4.90;;;;;;;16.33;88.48;100715.91;5073968;28;20199;-72
2022/07/23 01:33:18;;;;;;;5.97;5.07;;;;;;;16.47;87.78;100712.72;5073825;28;20271;-71
2022/07/23 01:35:45;;;;;;;5.53;5.03;;;;;;;16.43;87.66;100727.81;5073536;28;20335;-71
2022/07/23 01:38:11;;;;;;;6.47;5.97;;;;;;;16.40;87.46;100720.03;5073607;28;20208;-71
2022/07/23 01:40:39;;;;;;;5.37;4.97;;;;;;;16.37;87.45;100722.78;5073648;28;20258;-71
2022/07/23 01:43:05;;;;;;;5.70;5.20;;;;;;;16.39;86.83;100749.06;5073529;28;20281;-71
2022/07/23 01:45:32;;;;;;;5.40;4.93;;;;;;;16.43;86.28;100769.97;5072353;28;20205;-71
2022/07/23 01:47:58;;;;;;;5.93;5.43;;;;;;;16.46;86.04;100775.13;5073521;28;20212;-71
2022/07/23 01:50:25;;;;;;;5.80;5.37;;;;;;;16.43;85.74;100779.63;5073532;28;20229;-71
2022/07/23 01:52:51;;;;;;;5.20;4.90;;;;;;;16.40;85.96;100770.09;5073794;28;20251;-71
2022/07/23 01:55:18;;;;;;;6.10;5.50;;;;;;;16.41;85.64;100782.34;5073080;28;20214;-71
2022/07/23 01:57:46;;;;;;;6.70;6.20;;;;;;;16.44;85.53;100797.19;5073233;28;20208;-72
2022/07/23 02:00:13;;;;;;;5.93;5.20;;;;;;;16.33;85.30;100792.28;5073287;28;20345;-71
2022/07/23 02:02:39;;;;;;;6.80;6.10;;;;;;;16.31;85.23;100796.75;5073111;28;20235;-71
2022/07/23 02:05:06;;;;;;;7.77;7.00;;;;;;;15.60;88.11;100744.00;5072845;28;20725;-72
2022/07/23 02:07:33;;;;;;;8.63;7.83;;;;;;;15.38;90.34;100664.97;5073034;28;20205;-71
2022/07/23 02:09:59;;;;;;;8.97;8.10;;;;;;;15.38;91.14;100643.03;5073201;28;20233;-71
2022/07/23 02:12:26;;;;;;;8.80;8.00;;;;;;;15.40;92.13;100604.38;5072984;28;20206;-71
2022/07/23 02:14:53;;;;;;;9.50;8.70;;;;;;;15.38;92.61;100588.69;5072780;28;20205;-71
2022/07/23 02:17:20;;;;;;;10.90;9.47;;;;;;;15.33;92.96;100582.72;5073100;28;20214;-71
2022/07/23 02:19:46;;;;;;;11.37;10.37;;;;;;;15.14;94.27;100545.69;5072416;28;20837;-71
2022/07/23 02:22:12;;;;;;;11.77;10.63;;;;;;;14.99;96.19;100514.72;5073057;28;20225;-71
2022/07/23 02:24:39;;;;;;;10.37;9.47;;;;;;;14.79;97.75;100489.16;5072961;28;20204;-71
2022/07/23 02:27:05;;;;;;;11.90;11.00;;;;;;;14.65;100.00;100461.59;5072677;28;20201;-71
2022/07/23 02:29:32;;;;;;;11.67;10.67;;;;;;;14.72;100.00;100443.84;5072348;28;20282;-71
2022/07/23 02:32:00;;;;;;;12.27;11.17;;;;;;;14.69;100.00;100455.31;5072525;28;20259;-71
2022/07/23 02:34:26;;;;;;;13.77;12.67;;;;;;;14.66;100.00;100462.44;5072398;28;20200;-72
2022/07/23 02:36:52;;;;;;;11.50;10.50;;;;;;;14.80;100.00;100480.34;5072456;28;20751;-71
2022/07/23 02:39:19;;;;;;;12.00;10.93;;;;;;;14.76;100.00;100497.13;5072603;28;20274;-71
2022/07/23 02:41:45;;;;;;;12.83;11.53;;;;;;;14.77;100.00;100518.13;5072708;28;20208;-71
2022/07/23 02:44:12;;;;;;;12.23;11.10;;;;;;;14.81;99.89;100538.13;5072174;28;20775;-72
2022/07/23 02:46:38;;;;;;;12.57;11.33;;;;;;;14.78;99.80;100553.13;5071994;28;20614;-71
2022/07/23 02:49:06;;;;;;;13.97;11.17;;;;;;;14.65;99.21;100550.06;5072486;28;20266;-71
2022/07/23 02:51:32;;;;;;;11.07;10.03;;;;;;;14.81;99.27;100555.66;5072511;28;20205;-72
2022/07/23 02:53:59;;;;;;;11.37;10.30;;;;;;;14.81;98.08;100572.28;5072287;28;20205;-71
2022/07/23 02:56:25;;;;;;;11.30;10.40;;;;;;;14.80;97.95;100588.09;5071671;28;20819;-71
2022/07/23 02:58:51;;;;;;;10.23;9.43;;;;;;;14.87;97.88;100584.34;5071895;28;20267;-71
2022/07/23 03:01:18;;;;;;;10.67;9.87;;;;;;;14.91;96.92;100591.22;5072009;28;20201;-71
2022/07/23 03:03:44;;;;;;;11.30;10.03;;;;;;;14.98;96.55;100602.38;5071967;28;20282;-71
2022/07/23 03:06:13;;;;;;;10.47;9.57;;;;;;;14.82;97.26;100605.50;5072260;28;20209;-72
2022/07/23 03:08:39;;;;;;;10.50;9.43;;;;;;;14.94;97.69;100592.88;5072174;28;20252;-71
2022/07/23 03:11:10;;;;;;;9.37;8.60;;;;;;;15.09;97.40;100595.81;5072160;28;20212;-71
2022/07/23 03:13:37;;;;;;;8.90;8.27;;;;;;;15.25;96.82;100608.44;5071786;28;20251;-71
2022/07/23 03:16:03;;;;;;;9.73;8.37;;;;;;;15.36;96.13;100618.56;5071588;28;20283;-71
2022/07/23 03:18:30;;;;;;;8.27;7.47;;;;;;;15.50;95.19;100645.25;5071880;28;20229;-71
2022/07/23 03:20:56;;;;;;;8.60;7.80;;;;;;;15.57;94.59;100653.78;5071616;28;20607;-71
2022/07/23 03:23:24;;;;;;;7.73;7.10;;;;;;;15.64;94.48;100661.41;5072019;28;20687;-71
2022/07/23 03:25:51;;;;;;;7.73;7.13;;;;;;;15.76;94.03;100670.66;5071805;28;20541;-71
2022/07/23 03:28:18;;;;;;;9.83;7.03;;;;;;;15.73;92.95;100702.34;5071644;28;20204;-71
2022/07/23 03:30:46;;;;;;;7.70;6.77;;;;;;;15.77;92.84;100706.56;5071896;28;20246;-71
2022/07/23 03:33:12;;;;;;;7.13;6.53;;;;;;;15.80;92.12;100711.72;5071643;28;20568;-71
2022/07/23 03:35:39;;;;;;;8.50;6.93;;;;;;;15.83;91.98;100711.59;5071624;28;20552;-71
2022/07/23 03:38:05;;;;;;;7.63;6.93;;;;;;;15.78;92.23;100712.72;5071792;28;20273;-71
2022/07/23 03:40:33;;;;;;;7.37;6.77;;;;;;;15.82;92.56;100693.25;5071630;28;20215;-71
2022/07/23 03:42:59;;;;;;;7.73;7.20;;;;;;;15.78;92.42;100704.81;5071456;28;20623;-71
2022/07/23 03:45:26;;;;;;;9.63;7.77;;;;;;;15.82;92.32;100693.25;5071259;28;20205;-71
2022/07/23 03:47:52;;;;;;;7.53;6.93;;;;;;;15.68;92.07;100701.63;5071669;28;20214;-71
2022/07/23 03:50:19;;;;;;;7.83;7.13;;;;;;;15.46;93.26;100665.56;5071692;28;20283;-71
2022/07/23 03:52:45;;;;;;;7.57;7.07;;;;;;;15.59;93.60;100649.31;5071666;28;20276;-71
2022/07/23 03:55:12;;;;;;;9.07;8.17;;;;;;;15.62;93.34;100660.59;5071359;28;20694;-72
2022/07/23 03:57:40;;;;;;;8.30;7.60;;;;;;;15.37;94.12;100651.88;5071430;28;20207;-71
2022/07/23 04:00:09;;;;;;;9.13;8.17;;;;;;;15.38;94.62;100636.03;5071455;28;20294;-71
2022/07/23 04:02:35;;;;;;;9.73;8.60;;;;;;;15.09;95.18;100632.63;5071444;28;20268;-71
2022/07/23 04:05:02;;;;;;;8.57;7.93;;;;;;;15.09;96.13;100593.19;5071160;28;20628;-72
2022/07/23 04:07:28;;;;;;;8.63;7.80;;;;;;;15.22;96.43;100585.75;5071810;28;20205;-71
2022/07/23 04:09:55;;;;;;;8.97;8.07;;;;;;;15.23;95.79;100608.50;5075254;28;20282;-71
2022/07/23 04:12:21;;;;;;;8.10;7.40;;;;;;;15.26;95.54;100608.41;5075473;28;20236;-71
2022/07/23 04:14:49;;;;;;;7.90;7.20;;;;;;;15.42;95.40;100597.28;5074862;28;20564;-71
2022/07/23 04:17:15;;;;;;;7.80;7.00;;;;;;;15.56;94.97;100599.41;5075168;28;20262;-72
2022/07/23 04:19:43;;;;;;;8.00;7.23;;;;;;;15.69;94.48;100627.84;5074959;28;20779;-71
2022/07/23 04:22:10;;;;;;;6.87;6.37;;;;;;;15.66;93.40;100659.56;5075380;28;20204;-71
2022/07/23 04:24:36;;;;;;;8.20;7.40;;;;;;;15.61;93.13;100682.53;5075203;28;20228;-71
2022/07/23 04:27:03;;;;;;;7.03;6.43;;;;;;;15.70;93.01;100673.47;5074967;28;20211;-71
2022/07/23 04:29:30;;;;;;;6.80;6.10;;;;;;;15.84;92.71;100675.63;5074918;28;20282;-72
2022/07/23 04:31:58;;;;;;;7.13;6.43;;;;;;;15.94;92.57;100679.63;5074916;28;20201;-71
2022/07/23 04:34:26;;;;;;;6.73;6.23;;;;;;;15.96;92.40;100684.84;5074833;28;20244;-72
2022/07/23 04:36:52;;;;;;;7.43;6.83;;;;;;;15.82;91.02;100730.97;5074494;28;20613;-71
2022/07/23 04:39:19;;;;;;;8.33;7.53;;;;;;;15.36;91.97;100742.19;5074924;28;20589;-71
2022/07/23 04:41:45;;;;;;;9.20;8.40;;;;;;;15.07;94.14;100687.03;5074810;28;20209;-71
2022/07/23 04:44:12;;;;;;;9.30;8.50;;;;;;;15.06;94.39;100659.06;5074305;28;20582;-71
2022/07/23 04:46:38;;;;;;;10.23;9.30;;;;;;;15.08;95.29;100644.09;5074497;28;20728;-71
2022/07/23 04:49:06;;;;;;;10.67;9.60;;;;;;;15.15;95.57;100630.72;5074510;28;20224;-71
2022/07/23 04:51:33;;;;;;;11.50;10.43;;;;;;;15.06;96.62;100602.97;5074780;28;20234;-71
2022/07/23 04:53:59;;;;;;;10.73;10.03;;;;;;;14.95;97.49;100586.72;5074546;28;20717;-71
2022/07/23 04:56:25;;;;;;;10.77;9.87;;;;;;;14.88;98.49;100576.44;5074218;28;20204;-71
2022/07/23 04:58:52;;;;;;;11.20;10.30;;;;;;;14.87;98.47;100574.69;5074342;28;20230;-71
2022/07/23 05:01:18;;;;;;;10.87;9.83;;;;;;;14.86;98.31;100569.47;5074432;28;20205;-71
2022/07/23 05:03:45;;;;;;;10.47;9.57;;;;;;;14.87;98.04;100593.09;5074158;28;20235;-71
2022/07/23 05:06:13;;;;;;;11.53;10.43;;;;;;;14.87;98.11;100587.84;5074295;28;20206;-72
2022/07/23 05:08:39;;;;;;;10.53;9.63;;;;;;;14.96;98.68;100584.00;5074440;28;20228;-72
2022/07/23 05:11:06;;;;;;;9.50;8.87;;;;;;;15.03;98.43;100589.94;5074282;28;20240;-71
2022/07/23 05:13:32;;;;;;;11.33;10.50;;;;;;;14.96;98.66;100589.28;5074010;28;20215;-71
2022/07/23 05:15:59;;;;;;;13.50;10.63;;;;;;;14.77;100.00;100572.44;5073865;28;20209;-71
2022/07/23 05:18:25;;;;;;;11.87;10.87;;;;;;;14.76;100.00;100560.22;5074371;28;20266;-71
2022/07/23 05:20:51;;;;;;;10.67;9.87;;;;;;;14.77;100.00;100551.44;5074009;28;20209;-71
2022/07/23 05:23:19;;;;;;;11.57;10.47;;;;;;;14.78;100.00;100548.72;5073723;28;20220;-71
2022/07/23 05:25:46;;;;;;;11.97;11.07;;;;;;;14.88;100.00;100546.63;5073135;28;20201;-72
2022/07/23 05:28:12;;;;;;;12.37;11.37;;;;;;;14.93;100.00;100546.50;5070993;28;20955;-71
2022/07/23 05:30:39;;;;;;;12.53;11.60;;;;;;;14.93;100.00;100549.13;5073268;28;20220;-71
2022/07/23 05:33:07;;;;;;;12.83;11.80;;;;;;;14.98;100.00;100550.66;5073519;28;20204;-71
2022/07/23 05:35:33;;;;;;;12.43;11.53;;;;;;;15.08;100.00;100566.97;5073031;28;20675;-71
2022/07/23 05:38:00;;;;;;;13.23;11.97;;;;;;;14.94;100.00;100590.25;5073331;28;20727;-71
2022/07/23 05:40:28;;;;;;;12.43;11.53;;;;;;;14.93;100.00;100576.25;5072817;28;20278;-71
2022/07/23 05:42:54;;;;;;;12.63;11.63;;;;;;;14.98;100.00;100576.94;5073412;28;20674;-71
2022/07/23 05:45:21;;;;;;;12.30;11.10;;;;;;;15.16;100.00;100592.97;5072762;28;20201;-72
2022/07/23 05:47:49;;;;;;;11.07;10.27;;;;;;;15.42;99.34;100607.81;5073055;28;20213;-71
2022/07/23 05:50:16;;;;;;;11.23;10.17;;;;;;;15.52;96.80;100648.69;5073322;28;20305;-72
2022/07/23 05:52:43;;;;;;;11.50;10.57;;;;;;;15.41;96.35;100688.53;5073283;28;20201;-72
2022/07/23 05:55:12;;;;;;;11.03;10.07;;;;;;;15.53;95.85;100684.59;5072574;28;20193;-72
2022/07/23 05:57:40;;;;;;;10.40;9.60;;;;;;;15.69;95.64;100698.91;5073114;28;20207;-72
2022/07/23 06:00:09;;;;;;;11.47;10.33;;;;;;;15.71;95.25;100714.66;5072526;28;20943;-71
2022/07/23 06:02:35;;;;;;;10.73;9.63;;;;;;;15.60;94.81;100724.69;5072471;28;20295;-71
2022/07/23 06:05:02;;;;;;;13.13;10.00;;;;;;;15.64;95.26;100721.91;5072601;28;20287;-71
2022/07/23 06:07:28;;;;;;;9.87;8.97;;;;;;;15.80;94.77;100714.38;5072527;28;20196;-71
2022/07/23 06:09:55;;;;;;;10.20;9.50;;;;;;;15.80;93.52;100756.47;5072519;28;20636;-71
2022/07/23 06:12:21;;;;;;;9.93;9.13;;;;;;;15.92;94.02;100749.06;5072734;28;20274;-71
2022/07/23 06:14:51;;;;;;;10.20;9.40;;;;;;;15.95;94.47;100734.00;5072300;28;20233;-71
2022/07/23 06:17:18;;;;;;;10.57;9.60;;;;;;;15.87;94.24;100739.53;5072470;28;20671;-71
2022/07/23 06:19:44;;;;;;;10.63;9.83;;;;;;;15.99;93.63;100754.03;5072565;28;20221;-71
2022/07/23 06:22:11;;;;;;;9.77;8.87;;;;;;;16.06;93.38;100759.94;5072206;28;20207;-71
2022/07/23 06:24:37;;;;;;;7.67;6.97;;;;;;;16.23;91.00;100804.97;5072250;28;20254;-71
2022/07/23 06:27:04;;;;;;;7.03;6.33;;;;;;;16.29;88.95;100861.81;5072189;28;20206;-72
2022/07/23 06:29:30;;;;;;;6.93;6.23;;;;;;;16.31;87.65;100907.41;5072050;28;20221;-71
2022/07/23 06:31:58;;;;;;;6.30;5.70;;;;;;;16.45;87.01;100920.09;5071844;28;20255;-71
2022/07/23 06:34:24;;;;;;;6.43;5.90;;;;;;;16.48;87.01;100936.66;5072186;28;20193;-71
2022/07/23 06:36:51;;;;;;;7.63;5.50;;;;;;;16.46;84.23;100991.19;5071821;28;20197;-71
2022/07/23 06:39:17;;;;;;;6.30;5.80;;;;;;;16.53;83.66;101020.84;5072162;28;20217;-71
2022/07/23 06:41:44;;;;;;;5.13;4.70;;;;;;;16.44;81.44;101105.50;5072269;28;20618;-71
2022/07/23 06:44:10;;;;;;;7.87;5.30;;;;;;;16.40;83.50;101064.34;5071704;28;20222;-71
2022/07/23 06:46:37;;;;;;;5.37;4.43;;;;;;;16.45;81.90;101099.28;5071698;28;20643;-71
2022/07/23 06:49:04;;;;;;;5.33;4.50;;;;;;;16.34;80.54;101115.47;5071870;28;20220;-71
2022/07/23 06:51:31;;;;;;;5.77;4.40;;;;;;;16.38;80.79;101119.72;5071832;28;20193;-71
2022/07/23 06:53:58;;;;;;;6.50;5.93;;;;;;;16.36;80.97;101120.69;5072049;28;20203;-71
2022/07/23 06:56:24;;;;;;;5.00;4.67;;;;;;;16.51;81.46;101093.84;5071766;28;20201;-71
2022/07/23 06:58:51;;;;;;;5.20;4.70;;;;;;;16.47;80.42;101113.28;5071459;28;20221;-71
2022/07/23 07:01:17;;;;;;;6.47;5.97;;;;;;;16.37;80.97;101117.13;5071745;28;20197;-71
2022/07/23 07:03:44;;;;;;;6.03;5.63;;;;;;;16.44;81.20;101098.44;5071666;28;20282;-71
2022/07/23 07:06:12;;;;;;;5.83;5.43;;;;;;;16.37;80.07;101115.38;5071388;28;20201;-72
2022/07/23 07:08:38;;;;;;;6.50;6.00;;;;;;;16.46;80.86;101091.34;5071526;28;20728;-73
2022/07/23 07:11:05;;;;;;;5.70;5.10;;;;;;;16.55;79.98;101099.84;5071978;28;20254;-71
2022/07/23 07:13:31;;;;;;;5.67;5.17;;;;;;;16.62;80.74;101104.88;5071673;28;20237;-72
2022/07/23 07:15:58;;;;;;;5.87;5.10;;;;;;;16.74;77.89;101144.94;5071199;28;20203;-72
2022/07/23 07:18:24;;;;;;;4.67;4.20;;;;;;;16.80;76.15;101221.19;5071870;28;20201;-72
2022/07/23 07:20:51;;;;;;;4.70;4.30;;;;;;;16.84;77.43;101207.88;5071910;28;20213;-73
2022/07/23 07:23:20;;;;;;;6.33;5.70;;;;;;;16.91;78.05;101197.13;5072213;28;20258;-72
2022/07/23 07:25:47;;;;;;;5.47;4.60;;;;;;;17.12;78.77;101171.81;5071687;28;20207;-71
2022/07/23 07:28:13;;;;;;;5.93;5.10;;;;;;;17.18;76.49;101201.47;5071828;28;20210;-71
2022/07/23 07:30:40;;;;;;;5.90;4.13;;;;;;;17.19;74.11;101287.63;5071440;28;20208;-71
2022/07/23 07:33:06;;;;;;;5.90;4.10;;;;;;;17.19;74.32;101300.81;5071677;28;20243;-70
2022/07/23 07:35:33;;;;;;;4.63;4.27;;;;;;;17.36;74.63;101289.72;5068668;28;20354;-77
2022/07/23 07:38:00;;;;;;;4.20;3.80;;;;;;;17.50;73.32;101305.06;5072052;28;20215;-78
2022/07/23 07:40:28;;;;;;;4.40;4.00;;;;;;;17.58;72.67;101320.66;5072466;28;20230;-78
2022/07/23 07:42:56;;;;;;;5.13;4.67;;;;;;;17.50;73.67;101325.34;5072778;28;20253;-77
2022/07/23 07:45:24;;;;;;;5.10;4.60;;;;;;;17.65;72.53;101311.63;5075109;28;20229;-77
2022/07/23 07:47:51;;;;;;;4.93;4.30;;;;;;;17.59;71.01;101362.84;5076168;28;20214;-77
2022/07/23 07:50:17;;;;;;;3.70;3.40;;;;;;;17.58;71.40;101389.28;5076375;28;20226;-78
2022/07/23 07:52:44;;;;;;;5.50;3.37;;;;;;;17.62;71.44;101383.00;5076360;28;20233;-78
2022/07/23 07:55:11;;;;;;;3.30;3.10;;;;;;;17.67;69.33;101420.69;5076018;28;20950;-77
2022/07/23 07:57:40;;;;;;;3.13;2.93;;;;;;;17.69;69.10;101434.69;5076103;28;20213;-78
2022/07/23 08:00:09;;;;;;;4.83;3.17;;;;;;;17.93;70.06;101432.19;5076298;28;20231;-77
2022/07/23 08:02:41;;;;;;;3.50;3.00;;;;;;;17.96;69.64;101410.97;5075803;28;20197;-77
2022/07/23 08:05:08;;;;;;;4.40;3.80;;;;;;;17.99;69.14;101430.19;5076365;28;20257;-78
2022/07/23 08:07:35;;;;;;;4.07;3.67;;;;;;;17.86;68.85;101447.41;5075960;28;20211;-77
2022/07/23 08:10:01;;;;;;;4.60;3.43;;;;;;;17.86;69.05;101416.56;5076749;28;20228;-78
2022/07/23 08:12:28;;;;;;;3.33;3.03;;;;;;;17.95;67.66;101444.44;5075747;28;20697;-78
2022/07/23 08:14:55;;;;;;;3.90;3.60;;;;;;;18.17;69.24;101433.13;5075489;28;20725;-78
2022/07/23 08:17:22;;;;;;;4.00;3.70;;;;;;;18.15;68.22;101437.59;5076652;28;20267;-78
2022/07/23 08:19:48;;;;;;;4.17;3.83;;;;;;;18.01;68.85;101444.22;5075449;28;20271;-77
2022/07/23 08:22:15;;;;;;;4.10;3.70;;;;;;;18.01;68.37;101443.38;5075794;28;20241;-78
2022/07/23 08:24:41;;;;;;;4.07;3.77;;;;;;;18.03;68.48;101442.38;5075870;28;20228;-77
2022/07/23 08:27:08;;;;;;;4.03;3.77;;;;;;;18.14;68.11;101426.19;5075060;28;20738;-77
2022/07/23 08:29:34;;;;;;;4.30;4.00;;;;;;;18.33;69.05;101420.25;5075236;28;20283;-79
2022/07/23 08:32:02;;;;;;;3.23;2.37;;;;;;;18.34;65.15;101504.78;5075886;28;20268;-77
2022/07/23 08:34:28;;;;;;;3.27;3.00;;;;;;;18.33;65.61;101531.25;5075249;28;20613;-78
2022/07/23 08:36:55;;;;;;;3.93;3.20;;;;;;;18.29;64.88;101545.50;5075293;28;20696;-78
2022/07/23 08:39:21;;;;;;;2.57;2.30;;;;;;;18.36;64.96;101531.19;5075459;28;20231;-77
2022/07/23 08:41:48;;;;;;;3.50;2.50;;;;;;;18.52;64.41;101544.72;5075735;28;20203;-78
2022/07/23 08:44:17;;;;;;;3.20;3.00;;;;;;;18.34;65.18;101555.00;5074529;28;20781;-77
2022/07/23 08:46:45;;;;;;;4.40;2.87;;;;;;;18.06;64.36;101568.28;5074595;28;20223;-77
2022/07/23 08:49:13;;;;;;;3.00;2.73;;;;;;;17.99;64.28;101543.81;5074484;28;20227;-77
2022/07/23 08:51:41;;;;;;;3.33;3.00;;;;;;;18.23;65.88;101514.84;5074899;28;20692;-77
2022/07/23 08:54:07;;;;;;;3.50;3.20;;;;;;;18.41;65.00;101514.25;5075408;28;20285;-78
2022/07/23 08:56:34;;;;;;;5.03;3.10;;;;;;;18.48;64.30;101538.69;5075692;28;20288;-78
2022/07/23 08:59:00;;;;;;;3.00;2.70;;;;;;;18.56;64.42;101549.84;5077340;28;20277;-78
2022/07/23 09:01:27;;;;;;;2.50;2.30;;;;;;;18.69;64.58;101544.13;5075148;28;20217;-77
2022/07/23 09:03:53;;;;;;;2.50;2.37;;;;;;;18.85;63.65;101546.22;5075310;28;20215;-78
2022/07/23 09:06:21;;;;;;;3.03;2.83;;;;;;;18.89;62.60;101578.75;5076033;28;20215;-79
2022/07/23 09:08:48;;;;;;;3.80;3.13;;;;;;;18.87;63.65;101575.28;5074806;28;20232;-77
2022/07/23 09:11:17;;;;;;;3.37;3.07;;;;;;;19.07;62.57;101561.34;5075792;28;20588;-78
2022/07/23 09:13:47;;;;;;;2.83;2.47;;;;;;;18.90;62.04;101593.69;5076057;28;20211;-78
2022/07/23 09:16:16;;;;;;;3.93;2.60;;;;;;;18.62;62.61;101584.03;5074510;28;20279;-77
2022/07/23 09:18:45;;;;;;;2.40;2.20;;;;;;;18.81;63.04;101557.84;5074370;28;20226;-76
2022/07/23 09:21:15;;;;;;;2.30;2.10;;;;;;;19.13;63.08;101549.66;5074506;28;20212;-78
2022/07/23 09:23:45;;;;;;;2.37;2.17;;;;;;;19.37;61.94;101582.31;5074917;28;20340;-79
2022/07/23 09:26:20;;;;;;;2.60;2.40;;;;;;;19.31;60.97;101609.84;5074585;28;20236;-78
2022/07/23 09:28:56;;;;;;;2.90;2.20;;;;;;;19.15;61.53;101619.28;5074048;28;20594;-78
2022/07/23 09:31:23;;;;;;;2.60;2.40;;;;;;;19.03;60.99;101623.22;5073894;28;20549;-78
2022/07/23 09:33:50;;;;;;;2.67;2.47;;;;;;;19.17;61.68;101596.28;5074937;28;20245;-79
2022/07/23 09:36:26;;;;;;;3.77;2.40;;;;;;;19.13;61.03;101600.81;5073976;28;20692;-78
2022/07/23 09:38:55;;;;;;;2.10;2.00;;;;;;;19.31;59.95;101631.03;5074374;28;20757;-77
2022/07/23 09:41:21;;;;;;;2.63;2.20;;;;;;;19.56;58.92;101657.50;5074252;28;20211;-77
2022/07/23 09:43:47;;;;;;;2.40;2.30;;;;;;;19.48;58.25;101685.16;5074169;28;20204;-77
2022/07/23 09:46:18;;;;;;;12.90;2.07;;;;;;;19.45;58.05;101691.44;5073774;28;20231;-78
2022/07/23 09:48:45;;;;;;;2.97;1.90;;;;;;;19.31;58.48;101686.66;5074209;28;20384;-78
2022/07/23 09:51:11;;;;;;;2.00;1.90;;;;;;;19.34;58.27;101678.56;5074213;28;20206;-78
2022/07/23 09:53:38;;;;;;;2.13;2.00;;;;;;;19.33;58.23;101690.09;5073871;28;20214;-77
2022/07/23 09:56:08;;;;;;;2.40;2.20;;;;;;;19.63;58.12;101671.38;5073445;28;20257;-77
2022/07/23 09:58:44;;;;;;;3.00;2.70;;;;;;;19.74;58.46;101653.31;5073821;28;20274;-77
2022/07/23 10:01:12;;;;;;;2.30;2.10;;;;;;;19.51;59.24;101655.94;5073445;28;20218;-78
2022/07/23 10:03:38;;;;;;;2.77;2.57;;;;;;;19.46;59.18;101621.66;5073806;28;20237;-77
2022/07/23 10:06:05;;;;;;;3.90;2.87;;;;;;;19.55;59.73;101621.31;5071490;28;20227;-78
2022/07/23 10:08:33;;;;;;;2.70;2.00;;;;;;;19.57;59.30;101603.59;5073991;28;20236;-78
2022/07/23 10:11:01;;;;;;;2.33;2.03;;;;;;;19.70;59.62;101595.16;5074368;28;20207;-78
2022/07/23 10:16:03;;;;;;;2.63;2.00;;;;;;;20.21;58.50;101617.91;5073570;28;20203;-78
2022/07/23 10:18:31;;;;;;;2.23;2.03;;;;;;;20.28;56.39;101650.34;5075111;28;20228;-78
2022/07/23 10:20:59;;;;;;;2.07;1.97;;;;;;;20.18;56.53;101697.59;5075365;28;20257;-78
2022/07/23 10:23:33;;;;;;;2.33;1.97;;;;;;;20.08;57.33;101691.78;5075454;28;20212;-78
2022/07/23 10:26:06;;;;;;;2.40;2.20;;;;;;;20.22;56.40;101678.00;5076580;28;20230;-79
2022/07/23 10:28:57;;;;;;;3.27;2.10;;;;;;;20.34;56.22;101687.25;5075434;28;20231;-79
2022/07/23 10:31:36;;;;;;;2.20;2.00;;;;;;;20.48;56.24;101692.00;5075198;28;20206;-79
2022/07/23 10:34:12;;;;;;;1.87;1.73;;;;;;;20.50;55.21;101703.41;5075796;28;20201;-78
2022/07/23 10:36:45;;;;;;;2.03;1.87;;;;;;;20.18;55.04;101729.41;5074410;28;20550;-78
2022/07/23 10:39:16;;;;;;;2.50;2.30;;;;;;;20.21;55.05;101732.78;5073623;28;20227;-78
2022/07/23 10:41:43;;;;;;;4.23;2.37;;;;;;;20.52;54.24;101722.78;5077145;28;20208;-78
2022/07/23 10:44:13;;;;;;;2.10;2.00;;;;;;;20.60;54.39;101756.06;5077623;28;20280;-81
2022/07/23 10:49:38;;;;;;;2.40;2.20;;;;;;;20.80;54.83;101731.38;5060770;28;20281;-78
2022/07/23 10:52:18;;;;;;;2.40;2.20;;;;;;;20.74;53.73;101752.84;5074709;28;20595;-79
2022/07/23 10:54:47;;;;;;;4.30;2.20;;;;;;;20.63;53.40;101758.59;5074368;28;20215;-79
2022/07/23 10:57:14;;;;;;;2.30;2.00;;;;;;;20.59;53.65;101750.81;5074451;28;20678;-78
2022/07/23 11:00:20;;;;;;;2.37;2.17;;;;;;;20.14;55.27;101719.84;5072442;28;20277;-78
2022/07/23 11:02:48;;;;;;;1.80;1.70;;;;;;;20.35;55.10;101697.78;5074242;28;20204;-77
2022/07/23 11:05:16;;;;;;;2.27;2.07;;;;;;;20.52;53.96;101701.56;5073296;28;20227;-78
2022/07/23 11:08:25;;;;;;;2.00;1.90;;;;;;;20.70;53.34;101710.59;5074472;28;20207;-79
2022/07/23 11:11:07;;;;;;;2.00;1.90;;;;;;;20.59;52.76;101743.75;5058839;28;20241;-79
2022/07/23 11:13:42;;;;;;;1.33;1.23;;;;;;;20.60;53.70;101739.28;5073609;28;20201;-78
2022/07/23 11:16:19;;;;;;;2.63;1.67;;;;;;;20.58;53.78;101726.03;5073477;28;20203;-79
2022/07/23 11:19:06;;;;;;;1.60;1.50;;;;;;;20.73;53.69;101727.25;5075517;28;20292;-79
2022/07/23 11:21:56;;;;;;;1.83;1.60;;;;;;;20.87;53.77;101720.50;5076199;28;20247;-79
2022/07/23 11:24:25;;;;;;;2.03;1.47;;;;;;;21.02;53.42;101730.47;5074761;28;20212;-79
2022/07/23 11:26:59;;;;;;;1.83;1.50;;;;;;;21.16;51.96;101729.91;5075720;28;20706;-78
2022/07/23 11:29:42;;;;;;;2.47;1.40;;;;;;;20.66;52.23;101768.22;5076003;28;20403;-79